Time,TemperatureF,DewpointF,PressureIn,WindDirection,WindDirectionDegrees,WindSpeedMPH,WindSpeedGustMPH,Humidity,HourlyPrecipIn,Conditions,Clouds,dailyrainin,SolarRadiationWatts/m^2,SoftwareType,DateUTC
2013-06-12 00:05:00,67.1,48.4,29.64,WNW,292,9.0,15.0,51,0.00,,,0.00,0,Wunderground v.1.15,2013-06-12 04:05:00,
2013-06-12 00:10:00,67.1,49.9,29.64,WNW,295,10.0,10.0,54,0.00,,,0.00,0,Wunderground v.1.15,2013-06-12 04:10:00,
2013-06-12 00:15:00,67.0,50.3,29.64,West,269,10.0,10.0,55,0.00,,,0.00,0,Wunderground v.1.15,2013-06-12 04:15:00,
2013-06-12 00:20:00,66.8,50.6,29.65,NW,312,9.0,10.0,56,0.00,,,0.00,0,Wunderground v.1.15,2013-06-12 04:20:00,
2013-06-12 00:25:00,66.6,51.4,29.65,WNW,300,9.0,11.0,58,0.00,,,0.00,0,Wunderground v.1.15,2013-06-12 04:25:00,
2013-06-12 00:30:00,66.7,52.4,29.65,WNW,282,9.0,9.0,60,0.00,,,0.00,0,Wunderground v.1.15,2013-06-12 04:30:00,
2013-06-12 00:40:00,66.7,53.7,29.65,West,272,7.0,7.0,63,0.00,,,0.00,0,Wunderground v.1.15,2013-06-12 04:40:00,
2013-06-12 00:50:00,66.4,53.4,29.65,WSW,257,8.0,11.0,63,0.00,,,0.00,0,Wunderground v.1.15,2013-06-12 04:50:00,
2013-06-12 01:00:00,66.2,54.1,29.65,WNW,284,9.0,9.0,65,0.00,,,0.00,0,Wunderground v.1.15,2013-06-12 05:00:00,
2013-06-12 01:10:00,66.1,54.4,29.65,WNW,288,8.0,8.0,66,0.00,,,0.00,0,Wunderground v.1.15,2013-06-12 05:10:00,
2013-06-12 01:15:00,66.0,53.9,29.65,WNW,296,8.0,13.0,65,0.00,,,0.00,0,Wunderground v.1.15,2013-06-12 05:15:00,
2013-06-12 01:20:00,65.9,53.8,29.65,WNW,300,7.0,7.0,65,0.00,,,0.00,0,Wunderground v.1.15,2013-06-12 05:20:00,
2013-06-12 01:30:00,65.6,53.1,29.65,West,281,8.0,8.0,64,0.00,,,0.00,0,Wunderground v.1.15,2013-06-12 05:30:00,
2013-06-12 01:35:00,65.5,53.0,29.65,WNW,298,8.0,11.0,64,0.00,,,0.00,0,Wunderground v.1.15,2013-06-12 05:35:00,
2013-06-12 01:40:00,65.5,53.0,29.65,NW,307,8.0,8.0,64,0.00,,,0.00,0,Wunderground v.1.15,2013-06-12 05:40:00,
2013-06-12 01:50:00,65.4,53.3,29.65,West,269,9.0,9.0,65,0.00,,,0.00,0,Wunderground v.1.15,2013-06-12 05:50:00,
2013-06-12 01:55:00,65.4,53.3,29.65,West,281,9.0,9.0,65,0.00,,,0.00,0,Wunderground v.1.15,2013-06-12 05:55:00,
2013-06-12 02:05:00,65.4,53.7,29.65,West,272,8.0,11.0,66,0.00,,,0.00,0,Wunderground v.1.15,2013-06-12 06:05:00,
2013-06-12 02:10:00,65.4,53.7,29.65,WNW,300,8.0,8.0,66,0.00,,,0.00,0,Wunderground v.1.15,2013-06-12 06:10:00,
2013-06-12 02:20:00,65.5,54.2,29.65,WSW,257,9.0,9.0,67,0.00,,,0.00,0,Wunderground v.1.15,2013-06-12 06:20:00,
2013-06-12 02:25:00,65.5,54.2,29.65,WNW,294,8.0,9.0,67,0.00,,,0.00,0,Wunderground v.1.15,2013-06-12 06:25:00,
2013-06-12 02:35:00,65.4,54.6,29.65,WNW,295,8.0,8.0,68,0.00,,,0.00,0,Wunderground v.1.15,2013-06-12 06:35:00,
2013-06-12 02:45:00,65.3,54.5,29.65,WNW,290,9.0,10.0,68,0.00,,,0.00,0,Wunderground v.1.15,2013-06-12 06:45:00,
2013-06-12 02:50:00,65.3,54.5,29.65,West,261,9.0,12.0,68,0.00,,,0.00,0,Wunderground v.1.15,2013-06-12 06:50:00,
2013-06-12 03:00:00,65.4,54.6,29.65,WNW,292,10.0,10.0,68,0.00,,,0.00,0,Wunderground v.1.15,2013-06-12 07:00:00,
2013-06-12 03:10:00,65.4,54.6,29.65,WNW,292,9.0,11.0,68,0.00,,,0.00,0,Wunderground v.1.15,2013-06-12 07:10:00,
2013-06-12 03:20:00,65.4,54.2,29.64,West,270,8.0,8.0,67,0.00,,,0.00,0,Wunderground v.1.15,2013-06-12 07:20:00,
2013-06-12 03:30:00,65.2,54.0,29.64,WNW,283,7.0,7.0,67,0.00,,,0.00,0,Wunderground v.1.15,2013-06-12 07:30:00,
2013-06-12 03:40:00,65.3,54.1,29.64,WNW,294,8.0,8.0,67,0.00,,,0.00,0,Wunderground v.1.15,2013-06-12 07:40:00,
2013-06-12 03:45:00,65.4,54.2,29.64,NW,326,9.0,11.0,67,0.00,,,0.00,0,Wunderground v.1.15,2013-06-12 07:45:00,
2013-06-12 03:50:00,65.5,54.7,29.64,WNW,287,9.0,9.0,68,0.00,,,0.00,0,Wunderground v.1.15,2013-06-12 07:50:00,
2013-06-12 04:00:00,65.8,55.3,29.63,WNW,292,9.0,13.0,69,0.00,,,0.00,0,Wunderground v.1.15,2013-06-12 08:00:00,
2013-06-12 04:05:00,65.9,55.4,29.64,WNW,294,9.0,13.0,69,0.00,,,0.00,0,Wunderground v.1.15,2013-06-12 08:05:00,
2013-06-12 04:15:00,66.3,56.2,29.64,NW,306,11.0,13.0,70,0.00,,,0.00,0,Wunderground v.1.15,2013-06-12 08:15:00,
2013-06-12 04:25:00,66.5,56.4,29.64,NW,311,11.0,12.0,70,0.00,,,0.00,0,Wunderground v.1.15,2013-06-12 08:25:00,
2013-06-12 04:35:00,66.2,56.1,29.64,WNW,298,10.0,18.0,70,0.00,,,0.00,0,Wunderground v.1.15,2013-06-12 08:35:00,
2013-06-12 04:45:00,66.3,56.6,29.65,NW,307,12.0,15.0,71,0.00,,,0.00,0,Wunderground v.1.15,2013-06-12 08:45:00,
2013-06-12 04:55:00,66.5,56.8,29.66,WNW,293,12.0,13.0,71,0.00,,,0.00,0,Wunderground v.1.15,2013-06-12 08:55:00,
2013-06-12 05:05:00,66.5,56.8,29.66,NW,313,12.0,16.0,71,0.00,,,0.00,0,Wunderground v.1.15,2013-06-12 09:05:00,
2013-06-12 05:10:00,66.4,56.3,29.66,WNW,303,11.0,11.0,70,0.00,,,0.00,0,Wunderground v.1.15,2013-06-12 09:10:00,
2013-06-12 05:20:00,66.2,55.7,29.67,WNW,288,10.0,14.0,69,0.00,,,0.00,5,Wunderground v.1.15,2013-06-12 09:20:00,
2013-06-12 05:30:00,66.1,55.2,29.67,WNW,301,10.0,10.0,68,0.00,,,0.00,14,Wunderground v.1.15,2013-06-12 09:30:00,
2013-06-12 05:45:00,66.0,55.1,29.68,WNW,303,10.0,11.0,68,0.00,,,0.00,21,Wunderground v.1.15,2013-06-12 09:45:00,
2013-06-12 05:55:00,66.1,55.2,29.68,West,280,10.0,14.0,68,0.00,,,0.00,63,Wunderground v.1.15,2013-06-12 09:55:00,
2013-06-12 06:05:00,66.4,55.9,29.69,NW,313,10.0,17.0,69,0.00,,,0.00,105,Wunderground v.1.15,2013-06-12 10:05:00,
2013-06-12 06:15:00,66.6,56.5,29.69,NW,311,12.0,17.0,70,0.00,,,0.00,69,Wunderground v.1.15,2013-06-12 10:15:00,
2013-06-12 06:25:00,66.6,56.5,29.69,NNW,346,11.0,13.0,70,0.00,,,0.00,132,Wunderground v.1.15,2013-06-12 10:25:00,
2013-06-12 06:35:00,66.6,56.9,29.69,NW,313,11.0,16.0,71,0.00,,,0.00,179,Wunderground v.1.15,2013-06-12 10:35:00,
2013-06-12 06:40:00,66.5,56.8,29.69,WNW,294,12.0,12.0,71,0.00,,,0.00,200,Wunderground v.1.15,2013-06-12 10:40:00,
2013-06-12 06:50:00,66.7,57.0,29.69,NNW,340,13.0,13.0,71,0.00,,,0.00,236,Wunderground v.1.15,2013-06-12 10:50:00,
2013-06-12 07:00:00,66.9,57.2,29.69,NW,315,11.0,15.0,71,0.00,,,0.00,269,Wunderground v.1.15,2013-06-12 11:00:00,
2013-06-12 07:10:00,67.0,57.3,29.69,West,274,12.0,12.0,71,0.00,,,0.00,301,Wunderground v.1.15,2013-06-12 11:10:00,
2013-06-12 07:20:00,67.1,57.4,29.69,NW,311,12.0,12.0,71,0.00,,,0.00,334,Wunderground v.1.15,2013-06-12 11:20:00,
2013-06-12 07:30:00,67.2,57.5,29.68,WNW,292,12.0,12.0,71,0.00,,,0.00,364,Wunderground v.1.15,2013-06-12 11:30:00,
2013-06-12 07:40:00,67.3,57.6,29.69,NW,309,14.0,15.0,71,0.00,,,0.00,396,Wunderground v.1.15,2013-06-12 11:40:00,
2013-06-12 07:50:00,67.3,57.6,29.69,NW,321,14.0,14.0,71,0.00,,,0.00,429,Wunderground v.1.15,2013-06-12 11:50:00,
2013-06-12 08:00:00,67.8,57.7,29.70,NNW,340,12.0,12.0,70,0.00,,,0.00,459,Wunderground v.1.15,2013-06-12 12:00:00,
2013-06-12 08:10:00,67.8,57.7,29.70,NNW,340,13.0,13.0,70,0.00,,,0.00,492,Wunderground v.1.15,2013-06-12 12:10:00,
2013-06-12 08:20:00,68.2,58.0,29.70,WNW,288,11.0,11.0,70,0.00,,,0.00,519,Wunderground v.1.15,2013-06-12 12:20:00,
2013-06-12 08:25:00,68.4,58.2,29.70,NW,326,11.0,18.0,70,0.00,,,0.00,534,Wunderground v.1.15,2013-06-12 12:25:00,
2013-06-12 08:35:00,68.2,57.6,29.70,NNW,345,14.0,14.0,69,0.00,,,0.00,568,Wunderground v.1.15,2013-06-12 12:35:00,
2013-06-12 08:45:00,68.7,58.1,29.70,NW,318,11.0,18.0,69,0.00,,,0.00,598,Wunderground v.1.15,2013-06-12 12:45:00,
2013-06-12 08:55:00,69.1,57.3,29.70,NW,326,12.0,12.0,66,0.00,,,0.00,628,Wunderground v.1.15,2013-06-12 12:55:00,
2013-06-12 09:05:00,68.8,57.0,29.70,WNW,302,13.0,20.0,66,0.00,,,0.00,652,Wunderground v.1.15,2013-06-12 13:05:00,
2013-06-12 09:15:00,69.3,57.9,29.70,NW,309,11.0,13.0,67,0.00,,,0.00,680,Wunderground v.1.15,2013-06-12 13:15:00,
2013-06-12 09:20:00,69.0,57.2,29.71,NNW,344,13.0,22.0,66,0.00,,,0.00,694,Wunderground v.1.15,2013-06-12 13:20:00,
2013-06-12 09:30:00,68.7,56.9,29.71,WNW,290,16.0,16.0,66,0.00,,,0.00,721,Wunderground v.1.15,2013-06-12 13:30:00,
2013-06-12 09:40:00,69.4,58.4,29.71,WNW,301,13.0,14.0,68,0.00,,,0.00,742,Wunderground v.1.15,2013-06-12 13:40:00,
2013-06-12 09:45:00,69.7,57.8,29.71,NNW,336,12.0,14.0,66,0.00,,,0.00,756,Wunderground v.1.15,2013-06-12 13:45:00,
2013-06-12 09:55:00,69.7,57.8,29.71,NNW,336,13.0,14.0,66,0.00,,,0.00,782,Wunderground v.1.15,2013-06-12 13:55:00,
2013-06-12 10:05:00,69.7,57.4,29.71,North,353,14.0,16.0,65,0.00,,,0.00,805,Wunderground v.1.15,2013-06-12 14:05:00,
2013-06-12 10:15:00,69.9,57.2,29.71,NNW,348,14.0,14.0,64,0.00,,,0.00,830,Wunderground v.1.15,2013-06-12 14:15:00,
2013-06-12 10:25:00,70.3,58.0,29.71,NNW,346,12.0,14.0,65,0.00,,,0.00,847,Wunderground v.1.15,2013-06-12 14:25:00,
2013-06-12 10:35:00,70.2,57.0,29.71,WNW,295,15.0,15.0,63,0.00,,,0.00,867,Wunderground v.1.15,2013-06-12 14:35:00,
2013-06-12 10:45:00,70.4,57.6,29.71,NW,313,13.0,16.0,64,0.00,,,0.00,884,Wunderground v.1.15,2013-06-12 14:45:00,
2013-06-12 10:55:00,70.6,57.8,29.72,NNW,343,14.0,20.0,64,0.00,,,0.00,904,Wunderground v.1.15,2013-06-12 14:55:00,
2013-06-12 11:05:00,71.0,57.8,29.72,West,280,12.0,17.0,63,0.00,,,0.00,918,Wunderground v.1.15,2013-06-12 15:05:00,
2013-06-12 11:15:00,71.3,58.1,29.73,WNW,292,13.0,19.0,63,0.00,,,0.00,942,Wunderground v.1.15,2013-06-12 15:15:00,
2013-06-12 11:25:00,71.5,58.2,29.73,WNW,290,13.0,13.0,63,0.00,,,0.00,1004,Wunderground v.1.15,2013-06-12 15:25:00,
2013-06-12 11:30:00,71.8,58.5,29.73,WNW,299,12.0,17.0,63,0.00,,,0.00,1004,Wunderground v.1.15,2013-06-12 15:30:00,
2013-06-12 11:40:00,71.8,57.6,29.73,NW,312,13.0,14.0,61,0.00,,,0.00,1009,Wunderground v.1.15,2013-06-12 15:40:00,
2013-06-12 11:50:00,72.4,58.2,29.73,NW,321,13.0,13.0,61,0.00,,,0.00,976,Wunderground v.1.15,2013-06-12 15:50:00,
2013-06-12 12:00:00,72.3,58.5,29.73,NW,313,14.0,14.0,62,0.00,,,0.00,1269,Wunderground v.1.15,2013-06-12 16:00:00,
2013-06-12 12:10:00,72.6,58.8,29.73,WNW,300,12.0,12.0,62,0.00,,,0.00,1252,Wunderground v.1.15,2013-06-12 16:10:00,
2013-06-12 12:20:00,72.8,58.1,29.73,West,281,13.0,14.0,60,0.00,,,0.00,1074,Wunderground v.1.15,2013-06-12 16:20:00,
2013-06-12 12:25:00,73.6,58.9,29.73,North,357,11.0,14.0,60,0.00,,,0.00,715,Wunderground v.1.15,2013-06-12 16:25:00,
2013-06-12 12:35:00,72.8,58.6,29.73,WNW,292,12.0,12.0,61,0.00,,,0.00,598,Wunderground v.1.15,2013-06-12 16:35:00,
2013-06-12 12:45:00,73.0,57.8,29.73,North,350,14.0,20.0,59,0.00,,,0.00,1009,Wunderground v.1.15,2013-06-12 16:45:00,
2013-06-12 12:50:00,73.5,58.8,29.73,NW,319,13.0,15.0,60,0.00,,,0.00,1000,Wunderground v.1.15,2013-06-12 16:50:00,
2013-06-12 13:00:00,73.4,58.2,29.73,NW,313,15.0,18.0,59,0.00,,,0.00,1014,Wunderground v.1.15,2013-06-12 17:00:00,
2013-06-12 13:05:00,73.9,59.6,29.73,NW,311,13.0,18.0,61,0.00,,,0.00,1076,Wunderground v.1.15,2013-06-12 17:05:00,
2013-06-12 13:15:00,74.1,58.4,29.74,NW,313,13.0,13.0,58,0.00,,,0.00,432,Wunderground v.1.15,2013-06-12 17:15:00,
2013-06-12 13:20:00,73.1,58.4,29.74,NNW,342,13.0,13.0,60,0.00,,,0.00,621,Wunderground v.1.15,2013-06-12 17:20:00,
2013-06-12 13:30:00,72.9,57.7,29.73,WSW,242,14.0,14.0,59,0.00,,,0.00,1028,Wunderground v.1.15,2013-06-12 17:30:00,
2013-06-12 13:40:00,74.0,58.3,29.73,NW,326,13.0,13.0,58,0.00,,,0.00,1051,Wunderground v.1.15,2013-06-12 17:40:00,
2013-06-12 13:50:00,74.2,58.5,29.74,WNW,292,14.0,14.0,58,0.00,,,0.00,555,Wunderground v.1.15,2013-06-12 17:50:00,
2013-06-12 14:00:00,73.3,59.0,29.73,WSW,252,13.0,13.0,61,0.00,,,0.00,436,Wunderground v.1.15,2013-06-12 18:00:00,
2013-06-12 14:05:00,73.9,59.6,29.73,NW,320,11.0,18.0,61,0.00,,,0.00,983,Wunderground v.1.15,2013-06-12 18:05:00,
2013-06-12 14:15:00,75.1,59.3,29.74,North,357,11.0,16.0,58,0.00,,,0.00,1041,Wunderground v.1.15,2013-06-12 18:15:00,
2013-06-12 14:25:00,75.1,58.8,29.74,NNW,340,12.0,17.0,57,0.00,,,0.00,1055,Wunderground v.1.15,2013-06-12 18:25:00,
2013-06-12 14:35:00,74.4,59.6,29.75,NW,315,13.0,14.0,60,0.00,,,0.00,1027,Wunderground v.1.15,2013-06-12 18:35:00,
2013-06-12 14:40:00,74.2,58.5,29.75,NW,311,13.0,13.0,58,0.00,,,0.00,480,Wunderground v.1.15,2013-06-12 18:40:00,
2013-06-12 14:50:00,74.4,58.7,29.75,WNW,298,14.0,14.0,58,0.00,,,0.00,900,Wunderground v.1.15,2013-06-12 18:50:00,
2013-06-12 15:00:00,75.1,59.3,29.75,North,6,11.0,11.0,58,0.00,,,0.00,900,Wunderground v.1.15,2013-06-12 19:00:00,
2013-06-12 15:05:00,75.1,59.3,29.75,NNW,336,11.0,14.0,58,0.00,,,0.00,946,Wunderground v.1.15,2013-06-12 19:05:00,
2013-06-12 15:15:00,74.6,59.3,29.75,WNW,290,12.0,12.0,59,0.00,,,0.00,877,Wunderground v.1.15,2013-06-12 19:15:00,
2013-06-12 15:25:00,75.1,59.3,29.75,NW,306,12.0,12.0,58,0.00,,,0.00,835,Wunderground v.1.15,2013-06-12 19:25:00,
2013-06-12 15:30:00,74.9,59.1,29.75,NW,321,12.0,12.0,58,0.00,,,0.00,816,Wunderground v.1.15,2013-06-12 19:30:00,
2013-06-12 15:40:00,75.3,59.0,29.75,NNW,331,11.0,11.0,57,0.00,,,0.00,789,Wunderground v.1.15,2013-06-12 19:40:00,
2013-06-12 15:45:00,75.5,58.7,29.75,NW,304,11.0,11.0,56,0.00,,,0.00,777,Wunderground v.1.15,2013-06-12 19:45:00,
2013-06-12 15:55:00,75.2,57.9,29.74,NNW,342,12.0,13.0,55,0.00,,,0.00,756,Wunderground v.1.15,2013-06-12 19:55:00,
2013-06-12 16:05:00,75.5,58.7,29.74,NNW,336,11.0,16.0,56,0.00,,,0.00,735,Wunderground v.1.15,2013-06-12 20:05:00,
2013-06-12 16:10:00,75.2,58.4,29.75,WNW,292,11.0,11.0,56,0.00,,,0.00,728,Wunderground v.1.15,2013-06-12 20:10:00,
2013-06-12 16:20:00,75.1,58.3,29.74,North,352,12.0,12.0,56,0.00,,,0.00,548,Wunderground v.1.15,2013-06-12 20:20:00,
2013-06-12 16:30:00,75.4,59.1,29.74,NNW,336,10.0,13.0,57,0.00,,,0.00,737,Wunderground v.1.15,2013-06-12 20:30:00,
2013-06-12 16:35:00,75.6,59.3,29.75,NNW,331,10.0,13.0,57,0.00,,,0.00,652,Wunderground v.1.15,2013-06-12 20:35:00,
2013-06-12 16:45:00,75.3,59.0,29.75,NNW,340,11.0,13.0,57,0.00,,,0.00,626,Wunderground v.1.15,2013-06-12 20:45:00,
2013-06-12 16:55:00,75.7,59.4,29.75,NNW,344,9.0,10.0,57,0.00,,,0.00,596,Wunderground v.1.15,2013-06-12 20:55:00,
2013-06-12 17:00:00,75.5,58.7,29.75,NNW,347,10.0,15.0,56,0.00,,,0.00,613,Wunderground v.1.15,2013-06-12 21:00:00,
2013-06-12 17:10:00,75.5,59.2,29.75,NW,321,9.0,9.0,57,0.00,,,0.00,561,Wunderground v.1.15,2013-06-12 21:10:00,
2013-06-12 17:20:00,75.6,58.8,29.75,NW,315,9.0,9.0,56,0.00,,,0.00,541,Wunderground v.1.15,2013-06-12 21:20:00,
2013-06-12 17:30:00,75.7,57.9,29.76,NW,326,10.0,10.0,54,0.00,,,0.00,492,Wunderground v.1.15,2013-06-12 21:30:00,
2013-06-12 17:40:00,75.5,58.7,29.76,NNW,343,9.0,9.0,56,0.00,,,0.00,454,Wunderground v.1.15,2013-06-12 21:40:00,
2013-06-12 17:50:00,75.1,58.8,29.76,North,357,9.0,9.0,57,0.00,,,0.00,424,Wunderground v.1.15,2013-06-12 21:50:00,
2013-06-12 18:00:00,74.8,58.1,29.76,NNW,342,10.0,10.0,56,0.00,,,0.00,397,Wunderground v.1.15,2013-06-12 22:00:00,
2013-06-12 18:05:00,74.5,58.3,29.76,North,1,10.0,14.0,57,0.00,,,0.00,378,Wunderground v.1.15,2013-06-12 22:05:00,
2013-06-12 18:15:00,73.9,57.7,29.76,NW,326,10.0,16.0,57,0.00,,,0.00,345,Wunderground v.1.15,2013-06-12 22:15:00,
2013-06-12 18:25:00,74.1,57.9,29.77,NW,326,9.0,13.0,57,0.00,,,0.00,313,Wunderground v.1.15,2013-06-12 22:25:00,
2013-06-12 18:35:00,74.1,57.9,29.77,WNW,303,8.0,10.0,57,0.00,,,0.00,281,Wunderground v.1.15,2013-06-12 22:35:00,
2013-06-12 18:45:00,73.7,58.0,29.78,North,355,9.0,10.0,58,0.00,,,0.00,250,Wunderground v.1.15,2013-06-12 22:45:00,
2013-06-12 18:55:00,73.7,58.5,29.78,North,351,7.0,11.0,59,0.00,,,0.00,209,Wunderground v.1.15,2013-06-12 22:55:00,
2013-06-12 19:05:00,73.5,58.3,29.78,NW,326,6.0,9.0,59,0.00,,,0.00,171,Wunderground v.1.15,2013-06-12 23:05:00,
2013-06-12 19:10:00,73.3,57.6,29.78,NNW,348,6.0,6.0,58,0.00,,,0.00,151,Wunderground v.1.15,2013-06-12 23:10:00,
2013-06-12 19:20:00,72.9,58.2,29.78,NW,318,6.0,6.0,60,0.00,,,0.00,118,Wunderground v.1.15,2013-06-12 23:20:00,
2013-06-12 19:30:00,72.4,58.2,29.79,NNW,336,6.0,6.0,61,0.00,,,0.00,86,Wunderground v.1.15,2013-06-12 23:30:00,
2013-06-12 19:40:00,72.2,58.5,29.79,NW,308,5.0,9.0,62,0.00,,,0.00,53,Wunderground v.1.15,2013-06-12 23:40:00,
2013-06-12 19:50:00,71.4,58.1,29.80,NW,313,5.0,5.0,63,0.00,,,0.00,23,Wunderground v.1.15,2013-06-12 23:50:00,
2013-06-12 20:00:00,70.6,57.8,29.80,NW,321,6.0,8.0,64,0.00,,,0.00,16,Wunderground v.1.15,2013-06-13 00:00:00,
2013-06-12 20:10:00,70.0,58.5,29.80,NW,322,6.0,6.0,67,0.00,,,0.00,11,Wunderground v.1.15,2013-06-13 00:10:00,
2013-06-12 20:20:00,69.5,58.5,29.80,NNW,331,6.0,6.0,68,0.00,,,0.00,5,Wunderground v.1.15,2013-06-13 00:20:00,
2013-06-12 20:30:00,69.3,57.9,29.80,North,349,6.0,6.0,67,0.00,,,0.00,0,Wunderground v.1.15,2013-06-13 00:30:00,
2013-06-12 20:40:00,69.2,57.4,29.81,North,5,6.0,7.0,66,0.00,,,0.00,0,Wunderground v.1.15,2013-06-13 00:40:00,
2013-06-12 20:45:00,69.0,57.2,29.81,NW,322,6.0,7.0,66,0.00,,,0.00,0,Wunderground v.1.15,2013-06-13 00:45:00,
2013-06-12 20:55:00,69.0,56.7,29.81,NNW,340,6.0,15.0,65,0.00,,,0.00,0,Wunderground v.1.15,2013-06-13 00:55:00,
2013-06-12 21:05:00,69.0,57.2,29.81,NW,326,7.0,8.0,66,0.00,,,0.00,0,Wunderground v.1.15,2013-06-13 01:05:00,
2013-06-12 21:15:00,68.9,56.6,29.82,North,351,6.0,10.0,65,0.00,,,0.00,0,Wunderground v.1.15,2013-06-13 01:15:00,
2013-06-12 21:20:00,69.0,56.7,29.83,NW,326,7.0,7.0,65,0.00,,,0.00,0,Wunderground v.1.15,2013-06-13 01:20:00,
2013-06-12 21:25:00,69.0,56.3,29.83,North,10,7.0,7.0,64,0.00,,,0.00,0,Wunderground v.1.15,2013-06-13 01:25:00,
2013-06-12 21:35:00,69.1,56.4,29.83,NNE,13,5.0,7.0,64,0.00,,,0.00,0,Wunderground v.1.15,2013-06-13 01:35:00,
2013-06-12 21:45:00,68.9,56.6,29.83,North,351,5.0,7.0,65,0.00,,,0.00,0,Wunderground v.1.15,2013-06-13 01:45:00,
2013-06-12 21:50:00,68.7,56.5,29.83,North,354,5.0,5.0,65,0.00,,,0.00,0,Wunderground v.1.15,2013-06-13 01:50:00,
2013-06-12 21:55:00,68.6,56.4,29.83,North,355,5.0,5.0,65,0.00,,,0.00,0,Wunderground v.1.15,2013-06-13 01:55:00,
2013-06-12 22:05:00,68.4,56.6,29.83,NNW,336,5.0,5.0,66,0.00,,,0.00,0,Wunderground v.1.15,2013-06-13 02:05:00,
2013-06-12 22:10:00,68.3,56.5,29.83,NW,322,5.0,7.0,66,0.00,,,0.00,0,Wunderground v.1.15,2013-06-13 02:10:00,
2013-06-12 22:15:00,68.2,56.8,29.83,NNW,344,5.0,7.0,67,0.00,,,0.00,0,Wunderground v.1.15,2013-06-13 02:15:00,
2013-06-12 22:25:00,68.0,56.6,29.83,North,353,2.0,4.0,67,0.00,,,0.00,0,Wunderground v.1.15,2013-06-13 02:25:00,
2013-06-12 22:35:00,67.5,57.0,29.83,NW,317,1.0,1.0,69,0.00,,,0.00,0,Wunderground v.1.15,2013-06-13 02:35:00,
2013-06-12 22:45:00,66.8,57.1,29.83,NW,318,1.0,2.0,71,0.00,,,0.00,0,Wunderground v.1.15,2013-06-13 02:45:00,
2013-06-12 22:55:00,66.1,56.8,29.83,NW,326,3.0,3.0,72,0.00,,,0.00,0,Wunderground v.1.15,2013-06-13 02:55:00,
2013-06-12 23:05:00,65.3,56.4,29.82,NNW,331,1.0,2.0,73,0.00,,,0.00,0,Wunderground v.1.15,2013-06-13 03:05:00,
2013-06-12 23:15:00,64.1,54.9,29.82,NNW,331,0.0,0.0,72,0.00,,,0.00,0,Wunderground v.1.15,2013-06-13 03:15:00,
2013-06-12 23:20:00,63.7,54.5,29.82,NNW,331,0.0,0.0,72,0.00,,,0.00,0,Wunderground v.1.15,2013-06-13 03:20:00,
2013-06-12 23:30:00,63.5,53.5,29.81,NNW,331,0.0,0.0,70,0.00,,,0.00,0,Wunderground v.1.15,2013-06-13 03:30:00,
2013-06-12 23:35:00,63.4,53.0,29.81,NNW,331,0.0,0.0,69,0.00,,,0.00,0,Wunderground v.1.15,2013-06-13 03:35:00,